Time;durP1;ratioP1;P1;durP2;ratioP2;P2;SDS_P1;SDS_P2;PMS_P1;PMS_P2;Temp;Humidity;BMP_temperature;BMP_pressure;BME280_temperature;BME280_humidity;BME280_pressure;Samples;Min_cycle;Max_cycle;Signal;HPM_P1;HPM_P2
2023/09/04 00:00:55;;;;;;;3.80;2.78;;;;;;;19.61;60.95;102659.53;5094324;28;20047;-65
2023/09/04 00:03:25;;;;;;;4.20;2.58;;;;;;;19.58;60.96;102663.56;5093462;28;20044;-65
2023/09/04 00:05:54;;;;;;;3.85;3.08;;;;;;;19.57;61.14;102659.19;5099095;28;20114;-65
2023/09/04 00:08:22;;;;;;;3.28;2.45;;;;;;;19.55;60.89;102663.22;5094753;28;20040;-65
2023/09/04 00:10:51;;;;;;;4.30;2.67;;;;;;;19.54;61.12;102658.84;5092696;28;20566;-66
2023/09/04 00:13:19;;;;;;;5.13;2.78;;;;;;;19.51;61.08;102649.19;5099608;28;20389;-65
2023/09/04 00:15:47;;;;;;;5.15;2.72;;;;;;;19.49;61.14;102662.25;5091697;28;20268;-65
2023/09/04 00:18:16;;;;;;;4.45;2.60;;;;;;;19.48;61.16;102661.41;5088816;28;20048;-65
2023/09/04 00:20:44;;;;;;;6.57;2.92;;;;;;;19.46;61.07;102649.91;5096248;28;20055;-65
2023/09/04 00:23:12;;;;;;;3.92;2.90;;;;;;;19.45;61.16;102659.16;5096499;28;20047;-66
2023/09/04 00:25:40;;;;;;;3.97;2.65;;;;;;;19.42;61.25;102659.63;5093483;28;20452;-65
2023/09/04 00:28:08;;;;;;;4.85;3.10;;;;;;;19.42;61.08;102664.25;5091963;28;20117;-65
2023/09/04 00:30:36;;;;;;;5.95;2.67;;;;;;;19.40;61.17;102652.75;5088936;28;20048;-66
2023/09/04 00:33:04;;;;;;;3.35;2.63;;;;;;;19.39;61.35;102656.56;5096693;28;20044;-65
2023/09/04 00:35:34;;;;;;;4.68;3.22;;;;;;;19.36;61.34;102649.66;5092886;28;20040;-65
2023/09/04 00:38:01;;;;;;;4.07;2.60;;;;;;;19.36;61.32;102654.28;5093923;28;20052;-65
2023/09/04 00:40:29;;;;;;;3.50;2.80;;;;;;;19.33;61.25;102647.41;5099093;28;20373;-65
2023/09/04 00:42:57;;;;;;;3.78;2.83;;;;;;;19.32;61.23;102643.03;5090380;28;20070;-66
2023/09/04 00:45:25;;;;;;;4.93;2.90;;;;;;;19.30;61.35;102647.06;5093441;28;20397;-66
2023/09/04 00:47:53;;;;;;;4.55;2.83;;;;;;;19.30;61.30;102647.06;5099092;28;20052;-65
2023/09/04 00:50:23;;;;;;;3.35;2.60;;;;;;;19.28;61.36;102651.91;5099787;28;20044;-65
2023/09/04 00:52:59;;;;;;;3.83;3.00;;;;;;;19.26;61.13;102649.44;5100230;28;20058;-65
2023/09/04 00:55:27;;;;;;;4.72;2.90;;;;;;;19.24;61.16;102651.56;5097511;28;20045;-66
2023/09/04 00:57:55;;;;;;;4.32;2.83;;;;;;;19.22;61.23;102655.59;5096610;28;20048;-65
2023/09/04 01:00:27;;;;;;;5.15;3.10;;;;;;;19.19;61.24;102652.25;5099094;28;20051;-65
2023/09/04 01:02:56;;;;;;;4.38;2.80;;;;;;;19.18;61.25;102644.31;5102550;28;20044;-65
2023/09/04 01:05:27;;;;;;;6.25;3.00;;;;;;;19.17;61.13;102650.84;5099238;28;20055;-65
2023/09/04 01:07:57;;;;;;;7.28;3.00;;;;;;;19.16;61.34;102649.19;5094571;28;20052;-65
2023/09/04 01:10:25;;;;;;;5.38;2.47;;;;;;;19.14;61.35;102645.84;5096824;28;20110;-65
2023/09/04 01:12:59;;;;;;;5.13;2.72;;;;;;;19.13;61.14;102644.19;5099173;28;20075;-65
2023/09/04 01:15:28;;;;;;;6.13;3.10;;;;;;;19.10;61.18;102642.78;5097494;28;20048;-65
2023/09/04 01:17:56;;;;;;;4.72;3.10;;;;;;;19.10;61.16;102641.94;5101264;28;20056;-65
2023/09/04 01:20:28;;;;;;;4.35;2.75;;;;;;;19.09;61.24;102643.84;5101748;28;20058;-65
2023/09/04 01:22:56;;;;;;;4.88;2.88;;;;;;;19.08;61.36;102644.06;5098957;28;20040;-65
2023/09/04 01:25:32;;;;;;;4.93;3.03;;;;;;;19.07;61.36;102628.78;5097443;28;20171;-65
2023/09/04 01:28:09;;;;;;;4.13;2.40;;;;;;;19.04;61.41;102627.41;5098241;28;20109;-66
2023/09/04 01:30:45;;;;;;;5.85;3.15;;;;;;;19.02;61.14;102623.25;5096700;28;20073;-66
2023/09/04 01:33:19;;;;;;;7.80;3.33;;;;;;;19.02;61.25;102629.53;5098789;28;20091;-65
2023/09/04 01:35:51;;;;;;;7.35;3.00;;;;;;;19.01;61.29;102629.75;5100260;28;20055;-65
2023/09/04 01:38:19;;;;;;;3.60;2.85;;;;;;;18.98;61.18;102636.50;5102979;28;20044;-65
2023/09/04 01:40:51;;;;;;;4.70;3.17;;;;;;;18.97;61.14;102625.84;5098775;28;20095;-64
2023/09/04 01:43:19;;;;;;;5.07;3.45;;;;;;;18.97;61.26;102634.84;5093268;28;20102;-65
2023/09/04 01:45:47;;;;;;;4.40;3.10;;;;;;;18.95;61.21;102628.81;5100200;28;20147;-65
2023/09/04 01:48:15;;;;;;;3.97;2.80;;;;;;;18.94;61.45;102635.31;5099586;28;20070;-65
2023/09/04 01:50:42;;;;;;;5.10;3.50;;;;;;;18.93;61.40;102633.66;5100061;28;20105;-66
2023/09/04 01:53:11;;;;;;;5.35;3.35;;;;;;;18.90;61.52;102639.56;5098330;28;20412;-65
2023/09/04 01:55:39;;;;;;;5.15;3.50;;;;;;;18.89;61.31;102640.63;5097769;28;20036;-65
2023/09/04 01:58:07;;;;;;;4.28;2.92;;;;;;;18.90;61.36;102638.75;5092219;28;20124;-66
2023/09/04 02:00:35;;;;;;;4.78;3.20;;;;;;;18.87;61.22;102631.88;5092356;28;20075;-66
2023/09/04 02:03:03;;;;;;;5.38;3.25;;;;;;;18.87;61.48;102634.59;5099915;28;20144;-66
2023/09/04 02:05:31;;;;;;;8.57;3.72;;;;;;;18.83;61.42;102631.50;5100231;28;20050;-66
2023/09/04 02:07:58;;;;;;;5.85;3.45;;;;;;;18.84;61.44;102630.44;5100057;28;20062;-66
2023/09/04 02:10:28;;;;;;;7.13;3.13;;;;;;;18.82;61.34;102621.66;5100590;28;20176;-66
2023/09/04 02:12:56;;;;;;;6.20;3.40;;;;;;;18.82;61.50;102621.66;5095973;28;20044;-66
2023/09/04 02:15:24;;;;;;;6.55;3.40;;;;;;;18.80;61.24;102615.63;5094234;28;20112;-66
2023/09/04 02:17:52;;;;;;;7.65;4.55;;;;;;;18.80;61.47;102617.53;5098256;28;20047;-66
2023/09/04 02:20:21;;;;;;;4.88;3.25;;;;;;;18.78;61.38;102620.47;5094206;28;20075;-66
2023/09/04 02:22:48;;;;;;;4.85;2.97;;;;;;;18.77;61.52;102610.63;5099894;28;20060;-65
2023/09/04 02:25:16;;;;;;;6.47;4.20;;;;;;;18.65;61.58;102593.44;5097263;28;20481;-65
2023/09/04 02:27:46;;;;;;;6.18;3.67;;;;;;;18.74;61.56;102599.38;5095037;28;20538;-66
2023/09/04 02:30:14;;;;;;;3.78;2.80;;;;;;;18.72;61.49;102606.97;5093560;28;20113;-66
2023/09/04 02:32:43;;;;;;;5.53;3.35;;;;;;;18.70;61.49;102592.75;5102274;28;20047;-66
2023/09/04 02:35:11;;;;;;;6.20;3.72;;;;;;;18.69;61.54;102599.25;5091791;28;20056;-66
2023/09/04 02:37:38;;;;;;;6.28;3.45;;;;;;;18.68;61.45;102601.16;5097839;28;20492;-66
2023/09/04 02:40:07;;;;;;;7.32;3.20;;;;;;;18.65;61.37;102601.59;5098860;28;20052;-66
2023/09/04 02:42:35;;;;;;;6.35;3.65;;;;;;;18.64;61.49;102599.13;5097279;28;20060;-65
2023/09/04 02:45:05;;;;;;;6.63;3.70;;;;;;;18.63;61.45;102595.56;5093969;28;20102;-65
2023/09/04 02:47:34;;;;;;;5.68;3.60;;;;;;;18.61;61.43;102586.81;5095549;28;20040;-66
2023/09/04 02:50:02;;;;;;;5.40;3.70;;;;;;;18.59;61.65;102591.63;5096651;28;20130;-65
2023/09/04 02:52:31;;;;;;;4.70;3.05;;;;;;;18.58;61.34;102583.69;5098924;28;20052;-66
2023/09/04 02:54:59;;;;;;;6.03;4.00;;;;;;;18.57;61.44;102596.47;5091067;28;20066;-66
2023/09/04 02:57:27;;;;;;;6.47;3.63;;;;;;;18.56;61.50;102591.25;5099418;28;20044;-65
2023/09/04 02:59:55;;;;;;;5.65;3.80;;;;;;;18.53;61.59;102585.22;5098007;28;20235;-66
2023/09/04 03:02:24;;;;;;;5.47;3.50;;;;;;;18.49;61.40;102581.28;5102436;28;20044;-66
2023/09/04 03:04:55;;;;;;;5.40;3.80;;;;;;;18.51;61.70;102583.78;5098648;28;20101;-66
2023/09/04 03:07:26;;;;;;;5.85;3.50;;;;;;;18.51;61.54;102581.06;5098743;28;20121;-66
2023/09/04 03:09:56;;;;;;;6.82;3.60;;;;;;;18.49;61.51;102580.47;5093952;28;20044;-66
2023/09/04 03:12:24;;;;;;;5.45;3.60;;;;;;;18.37;61.61;102550.47;5093630;28;20067;-65
2023/09/04 03:14:56;;;;;;;7.28;3.78;;;;;;;18.36;61.67;102550.72;5093214;28;20116;-66
2023/09/04 03:17:27;;;;;;;7.30;3.95;;;;;;;18.44;61.56;102559.38;5094067;28;20471;-65
2023/09/04 03:19:58;;;;;;;6.38;3.65;;;;;;;18.43;61.67;102563.16;5098997;28;20139;-66
2023/09/04 03:22:26;;;;;;;5.53;3.58;;;;;;;18.34;61.59;102556.38;5100198;28;20049;-66
2023/09/04 03:24:55;;;;;;;4.60;3.58;;;;;;;18.37;61.50;102555.91;5096331;28;20187;-65
2023/09/04 03:27:23;;;;;;;5.03;3.28;;;;;;;18.39;61.75;102559.25;5097304;28;20056;-65
2023/09/04 03:29:51;;;;;;;4.45;3.28;;;;;;;18.35;61.71;102541.72;5092098;28;20048;-64
2023/09/04 03:32:19;;;;;;;8.18;3.67;;;;;;;18.38;61.52;102557.59;5097745;28;20048;-64
2023/09/04 03:34:48;;;;;;;5.00;3.17;;;;;;;18.38;61.62;102567.63;5095987;28;20040;-64
2023/09/04 03:37:16;;;;;;;4.95;3.35;;;;;;;18.36;61.50;102564.31;5094203;28;20052;-65
2023/09/04 03:39:44;;;;;;;5.93;4.20;;;;;;;18.34;61.41;102571.88;5094409;28;20048;-65
2023/09/04 03:42:11;;;;;;;7.38;3.65;;;;;;;18.33;61.66;102565.63;5099222;28;20040;-65
2023/09/04 03:44:39;;;;;;;5.20;3.58;;;;;;;18.33;61.53;102564.78;5097514;28;20460;-65
2023/09/04 03:47:07;;;;;;;6.47;3.50;;;;;;;18.31;61.69;102565.00;5096372;28;20126;-65
2023/09/04 03:49:35;;;;;;;5.65;3.70;;;;;;;18.31;61.55;102561.47;5095466;28;20165;-66
2023/09/04 03:52:04;;;;;;;4.95;3.17;;;;;;;18.31;61.73;102561.47;5098204;28;20048;-65
2023/09/04 03:54:33;;;;;;;4.95;3.13;;;;;;;18.30;61.62;102567.97;5095368;28;20045;-66
2023/09/04 03:57:00;;;;;;;5.20;3.63;;;;;;;18.27;61.63;102555.66;5098207;28;20050;-65
2023/09/04 03:59:28;;;;;;;4.97;3.60;;;;;;;18.28;61.57;102561.94;5093987;28;20051;-66
2023/09/04 04:01:56;;;;;;;5.28;3.80;;;;;;;18.26;61.66;102562.16;5096123;28;20478;-65
2023/09/04 04:04:24;;;;;;;6.00;3.65;;;;;;;18.25;61.58;102555.06;5099915;28;20052;-65
2023/09/04 04:06:52;;;;;;;8.93;4.00;;;;;;;18.24;61.50;102553.38;5097561;28;20194;-65
2023/09/04 04:09:21;;;;;;;5.28;3.47;;;;;;;18.23;61.67;102550.91;5095882;28;20052;-64
2023/09/04 04:11:52;;;;;;;5.63;3.97;;;;;;;18.20;61.72;102550.31;5096089;28;20067;-64
2023/09/04 04:14:20;;;;;;;6.15;3.65;;;;;;;18.19;61.61;102551.38;5096382;28;20063;-64
2023/09/04 04:16:47;;;;;;;8.45;3.95;;;;;;;18.19;61.70;102555.97;5096974;28;20044;-66
2023/09/04 04:19:16;;;;;;;8.63;4.35;;;;;;;18.18;61.73;102551.59;5100608;28;20060;-66
2023/09/04 04:21:43;;;;;;;5.40;3.60;;;;;;;18.17;61.59;102553.50;5103606;28;20044;-66
2023/09/04 04:24:12;;;;;;;5.72;3.90;;;;;;;18.17;61.68;102563.53;5099231;28;20043;-65
2023/09/04 04:26:42;;;;;;;5.30;3.60;;;;;;;18.15;61.65;102552.06;5097911;28;20082;-66
2023/09/04 04:29:10;;;;;;;5.00;3.83;;;;;;;18.13;61.62;102559.63;5100826;28;20509;-64
2023/09/04 04:31:39;;;;;;;7.32;4.07;;;;;;;18.13;61.62;102554.19;5095514;28;20044;-64
2023/09/04 04:34:07;;;;;;;6.13;4.22;;;;;;;18.12;61.57;102555.25;5100661;28;20052;-65
2023/09/04 04:36:35;;;;;;;5.25;3.90;;;;;;;18.10;61.52;102541.88;5100010;28;20048;-65
2023/09/04 04:39:03;;;;;;;6.15;3.80;;;;;;;18.09;61.68;102550.25;5094949;28;20052;-65
2023/09/04 04:41:32;;;;;;;7.03;4.05;;;;;;;18.08;61.56;102548.59;5100230;28;20056;-65
2023/09/04 04:44:01;;;;;;;5.07;3.38;;;;;;;18.07;61.56;102544.22;5101775;28;20044;-65
2023/09/04 04:46:29;;;;;;;6.32;3.90;;;;;;;18.05;61.76;102540.88;5096102;28;20109;-66
2023/09/04 04:48:57;;;;;;;5.93;3.80;;;;;;;18.04;61.61;102545.50;5098329;28;20044;-64
2023/09/04 04:51:25;;;;;;;6.55;3.83;;;;;;;18.04;61.81;102547.41;5099243;28;20044;-65
2023/09/04 04:53:52;;;;;;;5.75;3.90;;;;;;;18.02;61.79;102546.78;5100184;28;20056;-65
2023/09/04 04:56:20;;;;;;;6.03;3.80;;;;;;;18.00;61.75;102535.31;5099994;28;20052;-65
2023/09/04 04:58:48;;;;;;;9.57;4.43;;;;;;;18.00;61.78;102544.31;5095429;28;20048;-65
2023/09/04 05:01:17;;;;;;;5.88;4.65;;;;;;;17.98;61.65;102540.97;5098490;28;20045;-66
2023/09/04 05:03:45;;;;;;;6.05;3.63;;;;;;;17.98;61.90;102532.81;5096144;28;20143;-67
2023/09/04 05:06:13;;;;;;;6.75;4.18;;;;;;;17.98;61.82;102540.16;5096744;28;20052;-67
2023/09/04 05:08:40;;;;;;;5.80;3.80;;;;;;;17.96;61.80;102529.50;5102074;28;20089;-67
2023/09/04 05:11:08;;;;;;;6.32;3.78;;;;;;;17.95;61.95;102538.72;5102384;28;20044;-67
2023/09/04 05:13:36;;;;;;;5.22;3.95;;;;;;;17.92;61.88;102539.19;5104233;28;20051;-66
2023/09/04 05:16:05;;;;;;;5.47;3.97;;;;;;;17.93;61.97;102549.00;5096612;28;20493;-66
2023/09/04 05:18:34;;;;;;;5.30;3.95;;;;;;;17.92;61.88;102543.78;5098115;28;20050;-67
2023/09/04 05:21:04;;;;;;;5.35;4.32;;;;;;;17.92;61.99;102551.94;5094785;28;20124;-64
2023/09/04 05:23:33;;;;;;;4.63;3.50;;;;;;;17.91;61.87;102544.84;5096468;28;20048;-66
2023/09/04 05:26:00;;;;;;;4.63;3.50;;;;;;;17.89;61.84;102545.09;5100216;28;20117;-67
2023/09/04 05:28:28;;;;;;;7.38;3.88;;;;;;;17.89;61.85;102558.69;5093164;28;20044;-66
2023/09/04 05:31:02;;;;;;;8.32;4.20;;;;;;;17.88;62.04;102552.41;5098331;28;20044;-67
2023/09/04 05:33:31;;;;;;;5.07;3.63;;;;;;;17.88;61.95;102546.13;5100006;28;20513;-67
2023/09/04 05:36:00;;;;;;;7.05;4.75;;;;;;;17.87;61.89;102556.19;5104033;28;20052;-67
2023/09/04 05:38:28;;;;;;;7.35;4.05;;;;;;;17.86;62.13;102557.25;5098981;28;20134;-66
2023/09/04 05:40:57;;;;;;;4.57;3.50;;;;;;;17.87;61.99;102558.06;5096594;28;20048;-68
2023/09/04 05:43:25;;;;;;;6.82;4.63;;;;;;;17.87;61.99;102556.19;4747020;28;10000079;-65
2023/09/04 05:45:54;;;;;;;9.43;4.13;;;;;;;17.87;62.18;102555.34;5095267;28;20082;-67
2023/09/04 05:48:21;;;;;;;5.05;3.42;;;;;;;17.86;61.84;102550.97;5094515;28;20086;-65
2023/09/04 05:50:50;;;;;;;5.97;4.18;;;;;;;17.75;62.05;102532.72;5098764;28;20098;-67
2023/09/04 05:53:19;;;;;;;5.60;3.83;;;;;;;17.84;62.18;102551.19;5095004;28;20400;-66
2023/09/04 05:56:05;;;;;;;8.85;4.25;;;;;;;17.84;62.35;102548.50;5090363;28;20056;-68
2023/09/04 05:58:34;;;;;;;5.80;3.78;;;;;;;17.83;62.19;102548.72;5093598;28;20087;-66
2023/09/04 06:01:02;;;;;;;5.57;4.05;;;;;;;17.83;62.30;102559.59;5091151;28;20070;-67
2023/09/04 06:03:30;;;;;;;5.45;3.47;;;;;;;17.83;62.20;102565.03;5096435;28;20047;-66
2023/09/04 06:05:58;;;;;;;6.70;4.60;;;;;;;17.83;62.28;102559.59;5091397;28;20056;-67
2023/09/04 06:08:27;;;;;;;5.22;3.95;;;;;;;17.84;62.39;102561.25;5094381;28;20077;-69
2023/09/04 06:10:55;;;;;;;7.20;4.20;;;;;;;17.83;62.52;102557.69;5097499;28;20125;-65
2023/09/04 06:13:23;;;;;;;6.40;5.25;;;;;;;17.83;62.83;102559.59;5100113;28;20052;-66
2023/09/04 06:15:51;;;;;;;7.88;4.60;;;;;;;17.85;62.69;102552.03;5097983;28;20066;-66
2023/09/04 06:18:20;;;;;;;6.88;4.38;;;;;;;17.86;62.62;102557.25;5097468;28;20059;-69
2023/09/04 06:20:48;;;;;;;10.00;4.90;;;;;;;17.90;62.77;102554.91;5101060;28;20105;-66
2023/09/04 06:23:16;;;;;;;7.70;3.83;;;;;;;17.92;62.63;102549.22;5099567;28;20062;-66
2023/09/04 06:25:46;;;;;;;6.95;4.55;;;;;;;17.81;62.71;102529.91;5098220;28;20484;-66
2023/09/04 06:28:14;;;;;;;4.90;3.70;;;;;;;17.93;62.47;102540.00;5100509;28;20051;-66
2023/09/04 06:30:44;;;;;;;5.53;3.72;;;;;;;17.95;62.64;102546.06;5096488;28;20078;-65
2023/09/04 06:33:12;;;;;;;8.30;4.60;;;;;;;17.96;63.04;102553.16;5099251;28;20052;-64
2023/09/04 06:35:40;;;;;;;7.00;4.32;;;;;;;17.96;63.11;102554.00;5100946;28;20052;-64
2023/09/04 06:38:10;;;;;;;7.18;4.90;;;;;;;17.96;63.08;102553.16;5098916;28;20040;-63
2023/09/04 06:40:38;;;;;;;10.90;4.80;;;;;;;17.85;63.09;102533.00;5101454;28;20044;-62
2023/09/04 06:43:09;;;;;;;5.65;4.55;;;;;;;17.95;63.25;102548.78;5096518;28;20594;-63
2023/09/04 06:45:38;;;;;;;8.57;4.35;;;;;;;17.96;63.12;102547.72;5095141;28;20176;-64
2023/09/04 06:48:06;;;;;;;7.53;3.78;;;;;;;17.97;63.41;102549.38;5101366;28;20051;-63
2023/09/04 06:50:34;;;;;;;6.43;3.97;;;;;;;17.97;63.47;102558.38;5099705;28;20064;-64
2023/09/04 06:53:02;;;;;;;7.95;3.85;;;;;;;17.99;63.27;102555.41;5097993;28;20075;-64
2023/09/04 06:55:30;;;;;;;5.40;3.78;;;;;;;18.00;63.53;102557.06;5098194;28;20056;-63
2023/09/04 06:57:58;;;;;;;6.85;4.05;;;;;;;17.97;63.25;102538.50;5098238;28;20059;-64
2023/09/04 07:00:27;;;;;;;5.82;3.55;;;;;;;17.99;63.36;102548.09;5100320;28;20048;-63
2023/09/04 07:02:55;;;;;;;6.43;3.72;;;;;;;17.99;63.36;102550.81;5101831;28;20053;-63
2023/09/04 07:05:23;;;;;;;4.68;3.50;;;;;;;17.98;63.45;102546.41;5100868;28;20048;-63
2023/09/04 07:07:51;;;;;;;5.43;3.38;;;;;;;17.97;63.32;102544.75;5101011;28;20063;-63
2023/09/04 07:10:19;;;;;;;5.43;3.22;;;;;;;17.98;63.46;102548.31;5096237;28;20052;-63
2023/09/04 07:12:47;;;;;;;6.57;3.47;;;;;;;17.98;63.34;102543.69;5102762;28;20109;-63
2023/09/04 07:15:18;;;;;;;4.65;3.45;;;;;;;17.99;63.54;102541.81;5098403;28;20094;-64
2023/09/04 07:17:47;;;;;;;4.75;3.20;;;;;;;17.99;63.57;102539.09;5098891;28;20048;-65
2023/09/04 07:20:15;;;;;;;5.28;4.32;;;;;;;17.99;63.65;102536.38;5094529;28;20048;-64
2023/09/04 07:22:43;;;;;;;5.72;3.15;;;;;;;17.99;63.50;102542.63;5098390;28;20447;-65
2023/09/04 07:25:11;;;;;;;5.55;3.60;;;;;;;17.98;63.85;102532.81;5093218;28;20055;-64
2023/09/04 07:27:39;;;;;;;4.95;3.30;;;;;;;17.98;63.77;102532.81;5096313;28;20044;-65
2023/09/04 07:30:09;;;;;;;5.90;3.63;;;;;;;17.96;63.75;102529.50;5092161;28;20069;-64
2023/09/04 07:32:36;;;;;;;5.45;3.53;;;;;;;17.97;63.67;102533.06;5100119;28;20048;-64
2023/09/04 07:35:07;;;;;;;6.28;3.50;;;;;;;17.98;63.78;102537.44;5099577;28;20063;-65
2023/09/04 07:37:35;;;;;;;4.43;2.85;;;;;;;17.99;63.73;102536.38;5096487;28;20052;-64
2023/09/04 07:40:04;;;;;;;5.57;3.30;;;;;;;17.98;64.10;102537.44;5098859;28;20048;-64
2023/09/04 07:42:32;;;;;;;6.70;3.55;;;;;;;18.00;63.97;102549.75;5095432;28;20565;-65
2023/09/04 07:45:00;;;;;;;4.68;3.30;;;;;;;18.01;64.24;102545.97;5097023;28;20054;-65
2023/09/04 07:47:28;;;;;;;6.53;3.53;;;;;;;17.91;63.90;102532.06;5096383;28;20109;-65
2023/09/04 07:49:56;;;;;;;5.35;3.65;;;;;;;18.04;64.11;102544.69;5098641;28;20036;-64
2023/09/04 07:52:25;;;;;;;4.63;3.50;;;;;;;18.05;64.39;102536.28;5098843;28;20052;-65
2023/09/04 07:54:53;;;;;;;4.75;3.40;;;;;;;18.07;64.23;102530.59;5095350;28;20072;-65
2023/09/04 07:57:21;;;;;;;5.38;4.00;;;;;;;17.98;64.16;102502.06;5096850;28;20123;-71
2023/09/04 07:59:49;;;;;;;4.93;3.67;;;;;;;18.11;64.31;102521.75;4742002;28;9999907;-71
2023/09/04 08:02:17;;;;;;;5.75;3.25;;;;;;;18.14;64.40;102523.19;5099380;28;20047;-71
2023/09/04 08:04:44;;;;;;;4.88;3.65;;;;;;;18.17;64.50;102520.00;5096548;28;20355;-70
2023/09/04 08:07:12;;;;;;;5.53;3.08;;;;;;;18.18;64.13;102527.94;5097171;28;20094;-71
2023/09/04 08:09:42;;;;;;;6.05;3.35;;;;;;;18.20;64.44;102528.53;5099351;28;20116;-71
2023/09/04 08:12:09;;;;;;;5.20;2.95;;;;;;;18.21;64.39;102524.75;5097412;28;20060;-71
2023/09/04 08:14:37;;;;;;;8.00;3.00;;;;;;;18.22;64.34;102525.56;5097675;28;20074;-71
2023/09/04 08:17:05;;;;;;;4.70;2.85;;;;;;;18.25;64.58;102522.38;5099465;28;20052;-71
2023/09/04 08:19:33;;;;;;;3.70;3.00;;;;;;;18.26;64.49;102517.78;5095051;28;20151;-71
2023/09/04 08:22:01;;;;;;;6.18;3.15;;;;;;;18.27;64.62;102517.53;5098675;28;20055;-71
2023/09/04 08:24:28;;;;;;;4.63;3.20;;;;;;;18.27;64.50;102509.38;5095905;28;20048;-71
2023/09/04 08:26:58;;;;;;;4.63;3.40;;;;;;;18.29;64.74;102518.16;5092704;28;20588;-70
2023/09/04 08:29:25;;;;;;;4.97;3.15;;;;;;;18.30;64.78;102508.09;5095638;28;20137;-71
2023/09/04 08:31:53;;;;;;;5.03;3.50;;;;;;;18.30;64.71;102511.63;5097346;28;20070;-70
2023/09/04 08:34:21;;;;;;;4.05;3.15;;;;;;;18.32;64.67;102516.84;5098172;28;20553;-70
2023/09/04 08:36:49;;;;;;;3.95;2.95;;;;;;;18.34;64.76;102518.28;5093162;28;20056;-71
2023/09/04 08:39:17;;;;;;;5.20;3.35;;;;;;;18.34;65.05;102515.56;5098431;28;20044;-71
2023/09/04 08:41:45;;;;;;;6.25;2.85;;;;;;;18.36;64.92;102509.88;5094520;28;20451;-69
2023/09/04 08:44:16;;;;;;;4.03;2.88;;;;;;;18.37;65.06;102516.97;5096516;28;20052;-69
2023/09/04 08:46:46;;;;;;;4.90;3.10;;;;;;;18.36;65.06;102512.59;5094790;28;20066;-69
2023/09/04 08:49:16;;;;;;;5.45;2.95;;;;;;;18.37;65.12;102508.81;5097647;28;20052;-69
2023/09/04 08:51:44;;;;;;;5.28;2.95;;;;;;;18.40;65.28;102517.34;5096117;28;20040;-69
2023/09/04 08:54:12;;;;;;;4.63;3.00;;;;;;;18.46;65.34;102518.31;5098196;28;20121;-70
2023/09/04 08:56:41;;;;;;;3.78;2.60;;;;;;;18.46;65.51;102513.69;5093540;28;20044;-71
2023/09/04 08:59:09;;;;;;;4.88;2.47;;;;;;;18.47;65.60;102506.34;5089606;28;20104;-71
2023/09/04 09:01:39;;;;;;;4.95;2.78;;;;;;;18.48;65.63;102506.13;5093582;28;20060;-69
2023/09/04 09:04:07;;;;;;;3.70;2.78;;;;;;;18.50;65.48;102501.25;5098548;28;20044;-70
2023/09/04 09:06:37;;;;;;;4.10;2.58;;;;;;;18.53;65.77;102499.97;5102473;28;20056;-70
2023/09/04 09:09:07;;;;;;;3.72;2.72;;;;;;;18.52;65.49;102496.41;5096639;28;20043;-66
2023/09/04 09:11:35;;;;;;;4.40;2.83;;;;;;;18.56;65.79;102494.06;5099465;28;20052;-69
2023/09/04 09:14:03;;;;;;;7.43;2.70;;;;;;;18.59;65.76;102495.47;5098366;28;20114;-70
2023/09/04 09:16:30;;;;;;;4.80;2.92;;;;;;;18.62;65.97;102500.47;5102710;28;20052;-70
2023/09/04 09:19:00;;;;;;;4.70;2.83;;;;;;;18.64;65.79;102507.34;5099994;28;20058;-69
2023/09/04 09:21:29;;;;;;;4.53;2.70;;;;;;;18.67;65.93;102498.72;5101923;28;20047;-70
2023/09/04 09:24:16;;;;;;;4.97;2.65;;;;;;;18.73;66.12;102500.50;5098264;28;20450;-70
2023/09/04 09:26:45;;;;;;;3.60;2.90;;;;;;;18.76;66.11;102512.81;5100047;28;20489;-70
2023/09/04 09:29:14;;;;;;;5.22;2.72;;;;;;;18.79;66.22;102515.06;5097531;28;20066;-70
2023/09/04 09:31:45;;;;;;;4.75;3.35;;;;;;;18.80;66.07;102512.09;5100859;28;20058;-70
2023/09/04 09:34:16;;;;;;;4.50;2.40;;;;;;;18.87;66.22;102513.88;5102367;28;20056;-70
2023/09/04 09:36:44;;;;;;;4.45;3.25;;;;;;;18.89;66.19;102511.75;5097030;28;20686;-70
2023/09/04 09:39:12;;;;;;;4.50;2.70;;;;;;;18.89;66.45;102501.69;5103875;28;20188;-69
2023/09/04 09:41:40;;;;;;;2.95;2.20;;;;;;;18.96;66.62;102501.56;5103158;28;20044;-70
2023/09/04 09:44:08;;;;;;;6.10;2.65;;;;;;;18.99;65.81;102506.53;5099266;28;20062;-71
2023/09/04 09:46:37;;;;;;;7.43;2.72;;;;;;;19.03;66.04;102505.81;5098866;28;20044;-70
2023/09/04 09:49:07;;;;;;;3.90;2.55;;;;;;;19.05;66.24;102502.88;5092374;28;20062;-70
2023/09/04 09:51:38;;;;;;;3.78;2.40;;;;;;;19.09;66.37;102504.00;5104120;28;20048;-71
2023/09/04 09:54:08;;;;;;;3.95;2.70;;;;;;;19.11;66.50;102504.59;5103691;28;20093;-71
2023/09/04 09:56:38;;;;;;;4.50;2.67;;;;;;;19.14;66.60;102507.69;5102696;28;20047;-70
2023/09/04 09:59:08;;;;;;;2.85;2.15;;;;;;;19.14;66.88;102483.16;5101894;28;20054;-70
2023/09/04 10:01:37;;;;;;;4.78;2.50;;;;;;;19.14;66.88;102482.31;5103436;28;20095;-70
2023/09/04 10:04:06;;;;;;;4.53;2.20;;;;;;;19.28;66.75;102485.63;5097879;28;20048;-70
2023/09/04 10:06:35;;;;;;;3.72;2.88;;;;;;;19.28;66.99;102475.53;5103645;28;20056;-70
2023/09/04 10:09:08;;;;;;;4.53;2.60;;;;;;;19.35;67.09;102475.41;5101265;28;20044;-70
2023/09/04 10:11:41;;;;;;;3.20;2.45;;;;;;;19.41;67.28;102479.91;5103669;28;20121;-70
2023/09/04 10:14:13;;;;;;;4.55;2.92;;;;;;;19.44;67.21;102482.16;5103851;28;20044;-70
2023/09/04 10:16:44;;;;;;;3.88;2.58;;;;;;;19.50;67.29;102483.91;5101521;28;20039;-70
2023/09/04 10:19:14;;;;;;;3.72;3.00;;;;;;;19.55;67.30;102485.94;5099308;28;20044;-70
2023/09/04 10:21:49;;;;;;;4.13;2.47;;;;;;;19.59;67.50;102482.50;5103973;28;20192;-70
2023/09/04 10:24:25;;;;;;;6.03;3.08;;;;;;;19.63;67.28;102474.66;5102697;28;20200;-71
2023/09/04 10:26:59;;;;;;;3.67;2.20;;;;;;;19.68;67.41;102469.28;5101574;28;20044;-70
2023/09/04 10:29:30;;;;;;;3.53;2.53;;;;;;;19.72;67.00;102467.75;5100492;28;20475;-70
2023/09/04 10:32:00;;;;;;;3.72;2.30;;;;;;;19.77;67.17;102463.22;5104244;28;20148;-71
2023/09/04 10:34:28;;;;;;;3.88;2.65;;;;;;;19.83;67.42;102453.22;5104517;28;20109;-71
2023/09/04 10:36:56;;;;;;;4.00;3.00;;;;;;;19.90;67.44;102461.25;5101751;28;20710;-71
2023/09/04 10:39:26;;;;;;;3.40;2.47;;;;;;;19.96;67.27;102458.38;5104540;28;20044;-71
2023/09/04 10:41:54;;;;;;;3.60;2.42;;;;;;;20.01;67.31;102460.38;5104131;28;20044;-71
2023/09/04 10:44:44;;;;;;;3.78;2.28;;;;;;;20.05;66.97;102451.44;5098552;28;20055;-70
2023/09/04 10:47:12;;;;;;;3.80;2.40;;;;;;;20.08;66.80;102453.69;5093703;28;20122;-70
2023/09/04 10:49:41;;;;;;;3.47;2.38;;;;;;;20.12;66.29;102443.91;5103974;28;20063;-70
2023/09/04 10:52:09;;;;;;;4.68;2.85;;;;;;;20.18;66.73;102444.00;5103319;28;20059;-70
2023/09/04 10:54:39;;;;;;;2.65;2.10;;;;;;;20.25;66.83;102448.25;5091637;28;20047;-69
2023/09/04 10:57:11;;;;;;;7.10;2.58;;;;;;;20.32;66.81;102440.72;5102224;28;20054;-70
2023/09/04 11:00:01;;;;;;;3.60;2.75;;;;;;;20.36;66.65;102444.59;5100242;28;20047;-70
2023/09/04 11:02:31;;;;;;;3.25;2.33;;;;;;;20.30;66.15;102417.47;5103611;28;20048;-70
2023/09/04 11:05:00;;;;;;;3.35;2.42;;;;;;;20.39;66.38;102425.00;5090565;28;20052;-70
2023/09/04 11:07:31;;;;;;;2.83;2.28;;;;;;;20.45;66.18;102421.28;5102480;28;20044;-69
2023/09/04 11:10:36;;;;;;;7.90;2.78;;;;;;;20.51;66.50;102419.47;5102787;28;20051;-69
2023/09/04 11:13:04;;;;;;;2.70;2.05;;;;;;;20.55;66.54;102417.88;5090469;28;20060;-69
2023/09/04 11:15:34;;;;;;;3.33;2.40;;;;;;;20.55;66.23;102417.06;5100732;28;20059;-70
2023/09/04 11:18:02;;;;;;;3.78;2.58;;;;;;;20.61;66.28;102416.06;5101388;28;20044;-70
2023/09/04 11:20:45;;;;;;;4.18;2.70;;;;;;;20.67;66.23;102423.25;5099198;28;20044;-70
2023/09/04 11:23:13;;;;;;;2.80;2.05;;;;;;;20.71;66.08;102419.75;5102238;28;20056;-71
2023/09/04 11:25:46;;;;;;;2.53;2.15;;;;;;;20.76;65.79;102428.03;5102100;28;20040;-69
2023/09/04 11:28:14;;;;;;;3.40;2.45;;;;;;;20.79;65.88;102411.13;5101156;28;20389;-69
2023/09/04 11:30:42;;;;;;;3.00;2.30;;;;;;;20.84;65.81;102417.72;5098503;28;20047;-69
2023/09/04 11:33:12;;;;;;;4.95;2.15;;;;;;;20.84;65.04;102413.09;5103122;28;20082;-69